createdAt,value
2018-11-05T00:00:29.918Z,1011.97
2018-11-05T00:01:29.910Z,1011.97
2018-11-05T00:02:29.914Z,1012.01
2018-11-05T00:03:29.911Z,1011.98
2018-11-05T00:04:29.895Z,1012.02
2018-11-05T00:05:29.893Z,1012.01
2018-11-05T00:06:29.884Z,1011.95
2018-11-05T00:07:29.878Z,1011.92
2018-11-05T00:08:29.874Z,1011.94
2018-11-05T00:09:29.869Z,1011.91
2018-11-05T00:10:29.865Z,1011.91
2018-11-05T00:11:29.861Z,1011.82
2018-11-05T00:12:29.853Z,1011.78
2018-11-05T00:13:29.848Z,1011.74
2018-11-05T00:14:29.844Z,1011.76
2018-11-05T00:15:29.837Z,1011.78
2018-11-05T00:16:29.832Z,1011.80
2018-11-05T00:17:29.830Z,1011.81
2018-11-05T00:18:29.824Z,1011.78
2018-11-05T00:19:29.823Z,1011.79
2018-11-05T00:20:29.986Z,1011.77
2018-11-05T00:21:29.813Z,1011.83
2018-11-05T00:22:29.802Z,1011.82
2018-11-05T00:23:29.798Z,1011.82
2018-11-05T00:24:29.792Z,1011.86
2018-11-05T00:25:29.788Z,1011.78
2018-11-05T00:26:29.783Z,1011.77
2018-11-05T00:27:29.785Z,1011.76
2018-11-05T00:28:29.774Z,1011.73
2018-11-05T00:29:29.777Z,1011.77
2018-11-05T00:30:29.766Z,1011.69
2018-11-05T00:31:29.760Z,1011.61
2018-11-05T00:32:29.755Z,1011.56
2018-11-05T00:33:29.749Z,1011.48
2018-11-05T00:34:29.742Z,1011.47
2018-11-05T00:35:29.738Z,1011.48
2018-11-05T00:36:30.360Z,1011.49
2018-11-05T00:37:29.729Z,1011.44
2018-11-05T00:38:29.724Z,1011.47
2018-11-05T00:39:29.718Z,1011.50
2018-11-05T00:40:29.711Z,1011.48
2018-11-05T00:41:29.703Z,1011.39
2018-11-05T00:42:29.703Z,1011.37
2018-11-05T00:43:29.698Z,1011.38
2018-11-05T00:44:29.696Z,1011.35
2018-11-05T00:45:29.707Z,1011.38
2018-11-05T00:46:29.683Z,1011.36
2018-11-05T00:47:29.678Z,1011.34
2018-11-05T00:48:29.671Z,1011.38
2018-11-05T00:49:29.667Z,1011.39
2018-11-05T00:50:29.660Z,1011.30
2018-11-05T00:51:29.656Z,1011.35
2018-11-05T00:52:29.650Z,1011.36
2018-11-05T00:53:29.649Z,1011.32
2018-11-05T00:54:29.649Z,1011.29
2018-11-05T00:55:29.637Z,1011.30
2018-11-05T00:56:29.632Z,1011.27
2018-11-05T00:57:29.627Z,1011.35
2018-11-05T00:58:29.622Z,1011.34
2018-11-05T00:59:29.617Z,1011.34
2018-11-05T01:00:29.608Z,1011.34
2018-11-05T01:01:29.610Z,1011.33
2018-11-05T01:02:29.600Z,1011.29
2018-11-05T01:03:29.595Z,1011.33
2018-11-05T01:04:29.592Z,1011.32
2018-11-05T01:05:29.588Z,1011.34
2018-11-05T01:06:29.581Z,1011.37
2018-11-05T01:07:29.572Z,1011.34
2018-11-05T01:08:29.570Z,1011.37
2018-11-05T01:09:29.563Z,1011.39
2018-11-05T01:10:29.560Z,1011.30
2018-11-05T01:11:29.559Z,1011.36
2018-11-05T01:12:29.550Z,1011.36
2018-11-05T01:13:29.542Z,1011.37
2018-11-05T01:14:29.537Z,1011.32
2018-11-05T01:15:29.533Z,1011.35
2018-11-05T01:16:29.531Z,1011.36
2018-11-05T01:17:29.523Z,1011.36
2018-11-05T01:18:29.519Z,1011.33
2018-11-05T01:19:29.515Z,1011.33
2018-11-05T01:20:29.510Z,1011.29
2018-11-05T01:21:29.503Z,1011.30
2018-11-05T01:22:29.497Z,1011.32
2018-11-05T01:23:29.492Z,1011.31
2018-11-05T01:24:29.488Z,1011.26
2018-11-05T01:25:29.481Z,1011.23
2018-11-05T01:26:29.477Z,1011.25
2018-11-05T01:27:29.472Z,1011.28
2018-11-05T01:28:29.468Z,1011.29
2018-11-05T01:29:29.461Z,1011.28
2018-11-05T01:30:29.456Z,1011.28
2018-11-05T01:31:29.456Z,1011.29
2018-11-05T01:32:29.444Z,1011.29
2018-11-05T01:33:29.441Z,1011.31
2018-11-05T01:34:29.435Z,1011.31
2018-11-05T01:35:29.430Z,1011.26
2018-11-05T01:36:29.428Z,1011.37
2018-11-05T01:37:29.425Z,1011.30
2018-11-05T01:38:29.415Z,1011.32
2018-11-05T01:39:29.416Z,1011.35
2018-11-05T01:40:29.407Z,1011.36
2018-11-05T01:41:29.399Z,1011.39
2018-11-05T01:42:29.395Z,1011.37
2018-11-05T01:43:29.390Z,1011.37
2018-11-05T01:44:29.385Z,1011.41
2018-11-05T01:45:29.380Z,1011.35
2018-11-05T01:46:29.383Z,1011.32
2018-11-05T01:47:29.371Z,1011.32
2018-11-05T01:48:29.364Z,1011.32
2018-11-05T01:49:29.359Z,1011.28
2018-11-05T01:50:29.352Z,1011.24
2018-11-05T01:51:29.352Z,1011.21
2018-11-05T01:52:29.342Z,1011.23
2018-11-05T01:53:29.338Z,1011.22
2018-11-05T01:54:29.334Z,1011.18
2018-11-05T01:55:29.330Z,1011.16
2018-11-05T01:56:29.322Z,1011.16
2018-11-05T01:57:29.322Z,1011.14
2018-11-05T01:58:29.314Z,1011.15
2018-11-05T01:59:29.309Z,1011.15
2018-11-05T02:00:29.302Z,1011.17
2018-11-05T02:01:29.297Z,1011.18
2018-11-05T02:02:29.291Z,1011.18
2018-11-05T02:03:29.297Z,1011.12
2018-11-05T02:04:29.285Z,1011.11
2018-11-05T02:05:29.280Z,1011.13
2018-11-05T02:06:29.272Z,1011.11
2018-11-05T02:07:29.268Z,1011.13
2018-11-05T02:08:29.259Z,1011.10
2018-11-05T02:09:29.256Z,1011.08
2018-11-05T02:10:29.426Z,1011.08
2018-11-05T02:11:29.250Z,1011.10
2018-11-05T02:12:29.242Z,1011.07
2018-11-05T02:13:29.391Z,1011.04
2018-11-05T02:14:29.233Z,1011.01
2018-11-05T02:15:29.227Z,1011.03
2018-11-05T02:16:29.223Z,1011.01
2018-11-05T02:17:29.215Z,1011.00
2018-11-05T02:18:29.211Z,1010.95
2018-11-05T02:19:29.208Z,1010.96
2018-11-05T02:20:29.207Z,1010.93
2018-11-05T02:21:29.196Z,1010.90
2018-11-05T02:22:29.192Z,1010.95
2018-11-05T02:23:29.187Z,1010.93
2018-11-05T02:24:29.183Z,1010.94
2018-11-05T02:25:29.175Z,1010.92
2018-11-05T02:26:29.171Z,1010.93
2018-11-05T02:27:29.167Z,1010.86
2018-11-05T02:28:29.161Z,1010.87
2018-11-05T02:29:29.159Z,1010.86
2018-11-05T02:30:29.152Z,1010.83
2018-11-05T02:31:29.146Z,1010.83
2018-11-05T02:32:29.142Z,1010.83
2018-11-05T02:33:29.143Z,1010.80
2018-11-05T02:34:29.129Z,1010.80
2018-11-05T02:35:29.126Z,1010.82
2018-11-05T02:36:29.121Z,1010.84
2018-11-05T02:37:29.116Z,1010.92
2018-11-05T02:38:29.118Z,1010.87
2018-11-05T02:39:29.106Z,1010.87
2018-11-05T02:40:29.099Z,1010.88
2018-11-05T02:41:29.098Z,1010.84
2018-11-05T02:42:29.086Z,1010.88
2018-11-05T02:43:29.086Z,1010.88
2018-11-05T02:44:29.089Z,1010.90
2018-11-05T02:45:29.075Z,1010.92
2018-11-05T02:46:29.072Z,1010.89
2018-11-05T02:47:29.066Z,1010.91
2018-11-05T02:48:29.067Z,1010.90
2018-11-05T02:49:29.057Z,1010.94
2018-11-05T02:50:29.048Z,1010.91
2018-11-05T02:51:29.041Z,1010.92
2018-11-05T02:52:29.038Z,1010.88
2018-11-05T02:53:29.033Z,1010.93
2018-11-05T02:54:29.040Z,1010.93
2018-11-05T02:55:29.023Z,1010.96
2018-11-05T02:56:29.017Z,1010.94
2018-11-05T02:57:29.014Z,1010.88
2018-11-05T02:58:29.009Z,1010.88
2018-11-05T02:59:29.006Z,1010.90
2018-11-05T03:00:28.998Z,1010.92
2018-11-05T03:01:29.001Z,1010.93
2018-11-05T03:02:28.989Z,1010.98
2018-11-05T03:03:28.984Z,1010.93
2018-11-05T03:04:28.979Z,1010.88
2018-11-05T03:05:28.972Z,1010.85
2018-11-05T03:06:28.970Z,1010.92
2018-11-05T03:07:28.962Z,1010.92
2018-11-05T03:08:28.958Z,1010.91
2018-11-05T03:09:28.951Z,1010.87
2018-11-05T03:10:28.953Z,1010.89
2018-11-05T03:11:28.942Z,1010.87
2018-11-05T03:12:28.938Z,1010.91
2018-11-05T03:13:29.897Z,1010.89
2018-11-05T03:14:28.927Z,1010.88
2018-11-05T03:15:28.921Z,1010.87
2018-11-05T03:16:28.915Z,1010.89
2018-11-05T03:17:28.914Z,1010.88
2018-11-05T03:18:28.908Z,1010.91
2018-11-05T03:19:28.922Z,1010.92
2018-11-05T03:20:28.896Z,1010.93
2018-11-05T03:21:28.897Z,1010.90
2018-11-05T03:22:28.886Z,1010.88
2018-11-05T03:23:28.881Z,1010.86
2018-11-05T03:24:28.876Z,1010.86
2018-11-05T03:25:28.871Z,1010.91
2018-11-05T03:26:28.866Z,1010.89
2018-11-05T03:27:28.865Z,1010.91
2018-11-05T03:28:28.860Z,1010.92
2018-11-05T03:29:28.852Z,1010.92
2018-11-05T03:30:28.846Z,1010.87
2018-11-05T03:31:28.843Z,1010.89
2018-11-05T03:32:28.841Z,1010.90
2018-11-05T03:33:28.830Z,1010.88
2018-11-05T03:34:28.828Z,1010.89
2018-11-05T03:35:28.820Z,1010.91
2018-11-05T03:36:28.816Z,1010.93
2018-11-05T03:37:28.812Z,1010.97
2018-11-05T03:38:28.807Z,1010.98
2018-11-05T03:39:28.800Z,1010.99
2018-11-05T03:40:28.795Z,1010.96
2018-11-05T03:41:28.791Z,1010.96
2018-11-05T03:42:28.787Z,1010.96
2018-11-05T03:43:28.782Z,1010.95
2018-11-05T03:44:28.776Z,1010.94
2018-11-05T03:45:28.776Z,1010.93
2018-11-05T03:46:28.767Z,1010.90
2018-11-05T03:47:28.765Z,1010.86
2018-11-05T03:48:28.756Z,1010.83
2018-11-05T03:49:28.752Z,1010.86
2018-11-05T03:50:28.745Z,1010.87
2018-11-05T03:51:28.741Z,1010.90
2018-11-05T03:52:28.739Z,1010.90
2018-11-05T03:53:28.738Z,1010.86
2018-11-05T03:54:28.727Z,1010.88
2018-11-05T03:55:28.778Z,1010.86
2018-11-05T03:56:28.765Z,1010.85
2018-11-05T03:57:28.710Z,1010.82
2018-11-05T03:58:28.707Z,1010.82
2018-11-05T03:59:28.703Z,1010.84
2018-11-05T04:00:28.700Z,1010.83
2018-11-05T04:01:28.691Z,1010.83
2018-11-05T04:02:28.687Z,1010.81
2018-11-05T04:03:28.767Z,1010.78
2018-11-05T04:04:28.674Z,1010.75
2018-11-05T04:05:28.672Z,1010.72
2018-11-05T04:06:28.674Z,1010.64
2018-11-05T04:07:28.662Z,1010.61
2018-11-05T04:08:28.656Z,1010.62
2018-11-05T04:09:28.658Z,1010.62
2018-11-05T04:10:28.649Z,1010.66
2018-11-05T04:11:28.643Z,1010.58
2018-11-05T04:12:28.636Z,1010.61
2018-11-05T04:13:28.632Z,1010.63
2018-11-05T04:14:29.411Z,1010.58
2018-11-05T04:15:28.706Z,1010.63
2018-11-05T04:16:28.617Z,1010.57
2018-11-05T04:17:28.612Z,1010.59
2018-11-05T04:18:28.607Z,1010.59
2018-11-05T04:19:28.602Z,1010.57
2018-11-05T04:20:28.596Z,1010.53
2018-11-05T04:21:28.603Z,1010.46
2018-11-05T04:22:28.592Z,1010.42
2018-11-05T04:23:28.582Z,1010.40
2018-11-05T04:24:28.577Z,1010.36
2018-11-05T04:25:28.575Z,1010.34
2018-11-05T04:26:28.564Z,1010.40
2018-11-05T04:27:28.567Z,1010.34
2018-11-05T04:28:28.559Z,1010.32
2018-11-05T04:29:28.551Z,1010.40
2018-11-05T04:30:28.548Z,1010.37
2018-11-05T04:31:28.550Z,1010.41
2018-11-05T04:32:28.561Z,1010.36
2018-11-05T04:33:28.531Z,1010.32
2018-11-05T04:34:28.529Z,1010.35
2018-11-05T04:35:28.524Z,1010.35
2018-11-05T04:36:28.516Z,1010.40
2018-11-05T04:37:28.510Z,1010.39
2018-11-05T04:38:28.507Z,1010.41
2018-11-05T04:39:28.502Z,1010.35
2018-11-05T04:40:28.496Z,1010.33
2018-11-05T04:41:28.494Z,1010.35
2018-11-05T04:42:28.486Z,1010.30
2018-11-05T04:43:28.482Z,1010.32
2018-11-05T04:44:28.477Z,1010.34
2018-11-05T04:45:28.472Z,1010.31
2018-11-05T04:46:28.467Z,1010.36
2018-11-05T04:47:28.463Z,1010.35
2018-11-05T04:48:28.456Z,1010.32
2018-11-05T04:49:28.452Z,1010.32
2018-11-05T04:50:28.447Z,1010.25
2018-11-05T04:51:28.443Z,1010.28
2018-11-05T04:52:28.436Z,1010.24
2018-11-05T04:53:28.434Z,1010.16
2018-11-05T04:54:28.427Z,1010.18
2018-11-05T04:55:28.432Z,1010.19
2018-11-05T04:56:28.421Z,1010.19
2018-11-05T04:57:28.419Z,1010.30
2018-11-05T04:58:28.409Z,1010.24
2018-11-05T04:59:28.402Z,1010.23
2018-11-05T05:00:28.396Z,1010.28
2018-11-05T05:01:28.386Z,1010.30
2018-11-05T05:02:28.386Z,1010.32
2018-11-05T05:03:28.435Z,1010.31
2018-11-05T05:04:28.377Z,1010.29
2018-11-05T05:05:28.371Z,1010.32
2018-11-05T05:06:28.369Z,1010.29
2018-11-05T05:07:28.362Z,1010.30
2018-11-05T05:08:28.356Z,1010.31
2018-11-05T05:09:28.354Z,1010.31
2018-11-05T05:10:28.347Z,1010.39
2018-11-05T05:11:28.342Z,1010.40
2018-11-05T05:12:28.337Z,1010.43
2018-11-05T05:13:28.337Z,1010.38
2018-11-05T05:14:28.330Z,1010.38
2018-11-05T05:15:28.321Z,1010.33
2018-11-05T05:16:28.315Z,1010.38
2018-11-05T05:17:28.309Z,1010.42
2018-11-05T05:18:28.307Z,1010.41
2018-11-05T05:19:28.302Z,1010.39
2018-11-05T05:20:28.928Z,1010.45
2018-11-05T05:21:28.293Z,1010.37
2018-11-05T05:22:28.368Z,1010.35
2018-11-05T05:23:28.281Z,1010.32
2018-11-05T05:24:28.274Z,1010.37
2018-11-05T05:25:28.297Z,1010.37
2018-11-05T05:26:28.269Z,1010.43
2018-11-05T05:27:28.262Z,1010.48
2018-11-05T05:28:28.257Z,1010.45
2018-11-05T05:29:28.251Z,1010.45
2018-11-05T05:30:28.250Z,1010.46
2018-11-05T05:31:28.242Z,1010.44
2018-11-05T05:32:28.241Z,1010.38
2018-11-05T05:33:28.292Z,1010.37
2018-11-05T05:34:28.226Z,1010.27
2018-11-05T05:35:28.227Z,1010.26
2018-11-05T05:36:28.215Z,1010.28
2018-11-05T05:37:28.208Z,1010.26
2018-11-05T05:38:28.206Z,1010.27
2018-11-05T05:39:28.201Z,1010.39
2018-11-05T05:40:28.195Z,1010.41
2018-11-05T05:41:28.357Z,1010.40
2018-11-05T05:42:28.185Z,1010.36
2018-11-05T05:43:28.185Z,1010.33
2018-11-05T05:44:28.173Z,1010.30
2018-11-05T05:45:28.170Z,1010.29
2018-11-05T05:46:28.231Z,1010.27
2018-11-05T05:47:28.160Z,1010.21
2018-11-05T05:48:28.159Z,1010.23
2018-11-05T05:49:28.150Z,1010.22
2018-11-05T05:50:28.143Z,1010.26
2018-11-05T05:51:28.142Z,1010.23
2018-11-05T05:52:28.134Z,1010.23
2018-11-05T05:53:28.126Z,1010.20
2018-11-05T05:54:28.124Z,1010.21
2018-11-05T05:55:28.120Z,1010.26
2018-11-05T05:56:28.111Z,1010.27
2018-11-05T05:57:28.107Z,1010.22
2018-11-05T05:58:28.108Z,1010.25
2018-11-05T05:59:28.098Z,1010.26
2018-11-05T06:00:28.092Z,1010.28
2018-11-05T06:01:28.087Z,1010.29
2018-11-05T06:02:28.103Z,1010.26
2018-11-05T06:03:28.076Z,1010.24
2018-11-05T06:04:28.072Z,1010.24
2018-11-05T06:05:28.065Z,1010.26
2018-11-05T06:06:28.099Z,1010.28
2018-11-05T06:07:28.058Z,1010.28
2018-11-05T06:08:28.051Z,1010.33
2018-11-05T06:09:28.045Z,1010.34
2018-11-05T06:10:28.039Z,1010.35
2018-11-05T06:11:28.035Z,1010.38
2018-11-05T06:12:28.027Z,1010.39
2018-11-05T06:13:28.025Z,1010.41
2018-11-05T06:14:28.019Z,1010.41
2018-11-05T06:15:28.018Z,1010.40
2018-11-05T06:16:28.010Z,1010.39
2018-11-05T06:17:28.002Z,1010.38
2018-11-05T06:18:28.000Z,1010.42
2018-11-05T06:19:27.991Z,1010.34
2018-11-05T06:20:27.985Z,1010.35
2018-11-05T06:21:27.982Z,1010.36
2018-11-05T06:22:27.977Z,1010.38
2018-11-05T06:23:28.017Z,1010.40
2018-11-05T06:24:27.968Z,1010.39
2018-11-05T06:25:27.967Z,1010.38
2018-11-05T06:26:27.956Z,1010.37
2018-11-05T06:27:27.950Z,1010.37
2018-11-05T06:28:27.972Z,1010.37
2018-11-05T06:29:27.940Z,1010.39
2018-11-05T06:30:27.935Z,1010.42
2018-11-05T06:31:27.928Z,1010.45
2018-11-05T06:32:27.924Z,1010.49
2018-11-05T06:33:27.919Z,1010.52
2018-11-05T06:34:27.914Z,1010.51
2018-11-05T06:35:28.006Z,1010.51
2018-11-05T06:36:27.902Z,1010.55
2018-11-05T06:37:27.899Z,1010.52
2018-11-05T06:38:27.893Z,1010.55
2018-11-05T06:39:27.889Z,1010.56
2018-11-05T06:40:27.879Z,1010.53
2018-11-05T06:41:28.024Z,1010.60
2018-11-05T06:42:27.873Z,1010.58
2018-11-05T06:43:27.871Z,1010.61
2018-11-05T06:44:27.861Z,1010.64
2018-11-05T06:45:27.955Z,1010.63
2018-11-05T06:46:27.854Z,1010.66
2018-11-05T06:47:27.847Z,1010.61
2018-11-05T06:48:27.841Z,1010.60
2018-11-05T06:49:27.838Z,1010.58
2018-11-05T06:50:27.828Z,1010.59
2018-11-05T06:51:27.832Z,1010.63
2018-11-05T06:52:27.819Z,1010.59
2018-11-05T06:53:27.815Z,1010.58
2018-11-05T06:54:27.809Z,1010.60
2018-11-05T06:55:27.805Z,1010.57
2018-11-05T06:56:27.798Z,1010.63
2018-11-05T06:57:27.802Z,1010.60
2018-11-05T06:58:27.796Z,1010.60
2018-11-05T06:59:27.783Z,1010.58
2018-11-05T07:00:27.782Z,1010.57
2018-11-05T07:01:27.780Z,1010.53
2018-11-05T07:02:27.804Z,1010.50
2018-11-05T07:03:27.765Z,1010.52
2018-11-05T07:04:27.757Z,1010.51
2018-11-05T07:05:27.752Z,1010.47
2018-11-05T07:06:27.749Z,1010.44
2018-11-05T07:07:27.742Z,1010.44
2018-11-05T07:08:27.741Z,1010.48
2018-11-05T07:09:27.736Z,1010.47
2018-11-05T07:10:27.730Z,1010.47
2018-11-05T07:11:27.920Z,1010.52
2018-11-05T07:12:27.717Z,1010.47
2018-11-05T07:13:27.715Z,1010.59
2018-11-05T07:14:27.705Z,1010.57
2018-11-05T07:15:27.705Z,1010.52
2018-11-05T07:16:27.697Z,1010.53
2018-11-05T07:17:27.716Z,1010.55
2018-11-05T07:18:27.790Z,1010.53
2018-11-05T07:19:27.769Z,1010.56
2018-11-05T07:20:27.679Z,1010.58
2018-11-05T07:21:27.671Z,1010.58
2018-11-05T07:22:27.665Z,1010.59
2018-11-05T07:23:27.659Z,1010.58
2018-11-05T07:24:27.659Z,1010.58
2018-11-05T07:25:27.652Z,1010.55
2018-11-05T07:26:27.694Z,1010.59
2018-11-05T07:27:27.690Z,1010.63
2018-11-05T07:28:27.636Z,1010.59
2018-11-05T07:29:27.630Z,1010.63
2018-11-05T07:30:27.630Z,1010.66
2018-11-05T07:31:27.621Z,1010.65
2018-11-05T07:32:27.615Z,1010.68
2018-11-05T07:33:27.759Z,1010.68
2018-11-05T07:34:27.685Z,1010.73
2018-11-05T07:35:27.601Z,1010.80
2018-11-05T07:36:27.592Z,1010.80
2018-11-05T07:37:27.596Z,1010.82
2018-11-05T07:38:27.585Z,1010.75
2018-11-05T07:39:27.578Z,1010.74
2018-11-05T07:40:27.575Z,1010.67
2018-11-05T07:41:27.567Z,1010.76
2018-11-05T07:42:27.567Z,1010.72
2018-11-05T07:43:27.558Z,1010.68
2018-11-05T07:44:27.553Z,1010.69
2018-11-05T07:45:27.552Z,1010.68
2018-11-05T07:46:27.545Z,1010.70
2018-11-05T07:47:27.539Z,1010.68
2018-11-05T07:48:27.545Z,1010.64
2018-11-05T07:49:27.538Z,1010.68
2018-11-05T07:50:27.698Z,1010.70
2018-11-05T07:51:27.520Z,1010.63
2018-11-05T07:52:27.514Z,1010.67
2018-11-05T07:53:27.512Z,1010.68
2018-11-05T07:54:27.504Z,1010.69
2018-11-05T07:55:27.500Z,1010.68
2018-11-05T07:56:27.494Z,1010.70
2018-11-05T07:57:27.489Z,1010.71
2018-11-05T07:58:27.487Z,1010.70
2018-11-05T07:59:27.477Z,1010.65
2018-11-05T08:00:27.478Z,1010.67
2018-11-05T08:01:27.469Z,1010.56
2018-11-05T08:02:27.458Z,1010.56
2018-11-05T08:03:27.459Z,1010.56
2018-11-05T08:04:27.454Z,1010.51
2018-11-05T08:05:27.456Z,1010.52
2018-11-05T08:06:27.446Z,1010.49
2018-11-05T08:07:27.440Z,1010.46
2018-11-05T08:08:27.610Z,1010.42
2018-11-05T08:09:27.973Z,1010.39
2018-11-05T08:10:27.425Z,1010.38
2018-11-05T08:11:27.417Z,1010.38
2018-11-05T08:12:27.417Z,1010.44
2018-11-05T08:13:27.412Z,1010.39
2018-11-05T08:14:27.442Z,1010.39
2018-11-05T08:15:27.401Z,1010.42
2018-11-05T08:16:27.400Z,1010.41
2018-11-05T08:17:27.389Z,1010.44
2018-11-05T08:18:27.388Z,1010.42
2018-11-05T08:19:27.381Z,1010.47
2018-11-05T08:20:27.372Z,1010.48
2018-11-05T08:21:27.370Z,1010.47
2018-11-05T08:22:27.367Z,1010.45
2018-11-05T08:23:27.362Z,1010.46
2018-11-05T08:24:27.377Z,1010.43
2018-11-05T08:25:27.499Z,1010.44
2018-11-05T08:26:27.346Z,1010.43
2018-11-05T08:27:27.352Z,1010.49
2018-11-05T08:28:27.345Z,1010.47
2018-11-05T08:29:27.327Z,1010.48
2018-11-05T08:30:28.050Z,1010.47
2018-11-05T08:31:27.321Z,1010.45
2018-11-05T08:32:27.317Z,1010.44
2018-11-05T08:33:27.314Z,1010.45
2018-11-05T08:34:27.465Z,1010.45
2018-11-05T08:35:27.305Z,1010.46
2018-11-05T08:36:27.306Z,1010.48
2018-11-05T08:37:27.745Z,1010.45
2018-11-05T08:38:27.289Z,1010.38
2018-11-05T08:39:27.282Z,1010.41
2018-11-05T08:40:27.421Z,1010.43
2018-11-05T08:41:27.273Z,1010.43
2018-11-05T08:42:27.270Z,1010.47
2018-11-05T08:43:27.266Z,1010.47
2018-11-05T08:44:27.258Z,1010.44
2018-11-05T08:45:27.512Z,1010.47
2018-11-05T08:46:27.251Z,1010.39
2018-11-05T08:47:27.250Z,1010.42
2018-11-05T08:48:27.238Z,1010.43
2018-11-05T08:49:27.238Z,1010.40
2018-11-05T08:50:27.262Z,1010.42
2018-11-05T08:51:27.482Z,1010.40
2018-11-05T08:52:27.255Z,1010.36
2018-11-05T08:53:27.217Z,1010.32
2018-11-05T08:54:27.214Z,1010.37
2018-11-05T08:55:27.209Z,1010.39
2018-11-05T08:56:27.204Z,1010.41
2018-11-05T08:57:27.223Z,1010.43
2018-11-05T08:58:27.197Z,1010.47
2018-11-05T08:59:27.191Z,1010.46
2018-11-05T09:00:27.186Z,1010.43
2018-11-05T09:01:27.191Z,1010.40
2018-11-05T09:02:27.177Z,1010.38
2018-11-05T09:03:27.170Z,1010.41
2018-11-05T09:04:27.186Z,1010.42
2018-11-05T09:05:27.163Z,1010.44
2018-11-05T09:06:27.159Z,1010.44
2018-11-05T09:07:27.157Z,1010.43
2018-11-05T09:08:27.150Z,1010.45
2018-11-05T09:09:27.143Z,1010.46
2018-11-05T09:10:27.307Z,1010.44
2018-11-05T09:11:27.698Z,1010.48
2018-11-05T09:12:27.149Z,1010.44
2018-11-05T09:13:27.132Z,1010.43
2018-11-05T09:14:27.167Z,1010.43
2018-11-05T09:15:27.124Z,1010.46
2018-11-05T09:16:27.117Z,1010.39
2018-11-05T09:17:27.113Z,1010.40
2018-11-05T09:18:27.110Z,1010.39
2018-11-05T09:19:27.107Z,1010.37
2018-11-05T09:20:27.100Z,1010.33
2018-11-05T09:21:27.098Z,1010.37
2018-11-05T09:22:27.094Z,1010.34
2018-11-05T09:23:27.091Z,1010.38
2018-11-05T09:24:27.087Z,1010.37
2018-11-05T09:25:27.083Z,1010.38
2018-11-05T09:26:27.080Z,1010.37
2018-11-05T09:27:27.073Z,1010.39
2018-11-05T09:28:27.070Z,1010.37
2018-11-05T09:29:27.071Z,1010.37
2018-11-05T09:30:27.066Z,1010.43
2018-11-05T09:31:27.058Z,1010.38
2018-11-05T09:32:27.052Z,1010.42
2018-11-05T09:33:27.047Z,1010.36
2018-11-05T09:34:27.044Z,1010.31
2018-11-05T09:35:27.228Z,1010.35
2018-11-05T09:36:27.035Z,1010.38
2018-11-05T09:37:27.033Z,1010.38
2018-11-05T09:38:27.028Z,1010.34
2018-11-05T09:39:27.046Z,1010.39
2018-11-05T09:40:27.020Z,1010.34
2018-11-05T09:41:27.015Z,1010.33
2018-11-05T09:42:27.011Z,1010.39
2018-11-05T09:43:27.006Z,1010.38
2018-11-05T09:44:27.002Z,1010.40
2018-11-05T09:45:26.996Z,1010.37
2018-11-05T09:46:26.992Z,1010.34
2018-11-05T09:47:26.990Z,1010.33
2018-11-05T09:48:26.983Z,1010.32
2018-11-05T09:49:27.051Z,1010.26
2018-11-05T09:50:27.419Z,1010.29
2018-11-05T09:51:26.970Z,1010.30
2018-11-05T09:52:26.967Z,1010.25
2018-11-05T09:53:27.195Z,1010.25
2018-11-05T09:54:26.956Z,1010.22
2018-11-05T09:55:26.989Z,1010.18
2018-11-05T09:56:27.297Z,1010.15
2018-11-05T09:57:26.943Z,1010.17
2018-11-05T09:58:26.944Z,1010.19
2018-11-05T09:59:26.935Z,1010.23
2018-11-05T10:00:26.933Z,1010.20
2018-11-05T10:01:26.925Z,1010.20
2018-11-05T10:02:26.932Z,1010.22
2018-11-05T10:03:27.493Z,1010.21
2018-11-05T10:04:27.026Z,1010.20
2018-11-05T10:05:26.908Z,1010.17
2018-11-05T10:06:26.908Z,1010.19
2018-11-05T10:07:26.902Z,1010.26
2018-11-05T10:08:26.916Z,1010.21
2018-11-05T10:09:26.920Z,1010.22
2018-11-05T10:10:26.992Z,1010.19
2018-11-05T10:11:26.882Z,1010.15
2018-11-05T10:12:26.875Z,1010.20
2018-11-05T10:13:26.872Z,1010.15
2018-11-05T10:14:26.869Z,1010.15
2018-11-05T10:15:26.894Z,1010.13
2018-11-05T10:16:26.902Z,1010.14
2018-11-05T10:17:26.852Z,1010.10
2018-11-05T10:18:26.853Z,1010.08
2018-11-05T10:19:26.844Z,1010.08
2018-11-05T10:20:26.841Z,1010.07
2018-11-05T10:21:26.834Z,1010.02
2018-11-05T10:22:26.832Z,1010.00
2018-11-05T10:23:26.828Z,1009.95
2018-11-05T10:24:26.844Z,1009.97
2018-11-05T10:25:26.817Z,1009.94
2018-11-05T10:26:27.016Z,1009.96
2018-11-05T10:27:26.828Z,1009.94
2018-11-05T10:28:26.811Z,1009.97
2018-11-05T10:29:26.798Z,1009.93
2018-11-05T10:30:26.801Z,1009.89
2018-11-05T10:31:26.824Z,1009.89
2018-11-05T10:32:26.792Z,1009.91
2018-11-05T10:33:26.803Z,1009.91
2018-11-05T10:34:26.782Z,1009.93
2018-11-05T10:35:26.774Z,1009.85
2018-11-05T10:36:26.774Z,1009.81
2018-11-05T10:37:26.770Z,1009.82
2018-11-05T10:38:26.830Z,1009.86
2018-11-05T10:39:26.762Z,1009.87
2018-11-05T10:40:26.817Z,1009.82
2018-11-05T10:41:26.753Z,1009.81
2018-11-05T10:42:27.510Z,1009.85
2018-11-05T10:43:26.748Z,1009.84
2018-11-05T10:44:26.794Z,1009.79
2018-11-05T10:45:26.740Z,1009.80
2018-11-05T10:46:26.839Z,1009.77
2018-11-05T10:47:26.731Z,1009.81
2018-11-05T10:48:26.726Z,1009.75
2018-11-05T10:49:26.723Z,1009.72
2018-11-05T10:50:26.774Z,1009.75
2018-11-05T10:51:26.810Z,1009.81
2018-11-05T10:52:26.797Z,1009.83
2018-11-05T10:53:26.714Z,1009.74
2018-11-05T10:54:26.708Z,1009.77
2018-11-05T10:55:26.706Z,1009.73
2018-11-05T10:56:26.697Z,1009.67
2018-11-05T10:57:26.696Z,1009.64
2018-11-05T10:58:26.693Z,1009.61
2018-11-05T10:59:26.692Z,1009.56
2018-11-05T11:00:26.684Z,1009.52
2018-11-05T11:01:26.686Z,1009.54
2018-11-05T11:02:26.677Z,1009.53
2018-11-05T11:03:26.678Z,1009.53
2018-11-05T11:04:26.916Z,1009.51
2018-11-05T11:05:26.666Z,1009.54
2018-11-05T11:06:26.663Z,1009.51
2018-11-05T11:07:26.661Z,1009.48
2018-11-05T11:08:26.656Z,1009.45
2018-11-05T11:09:26.662Z,1009.45
2018-11-05T11:10:26.668Z,1009.52
2018-11-05T11:11:26.717Z,1009.45
2018-11-05T11:12:26.873Z,1009.46
2018-11-05T11:13:26.798Z,1009.46
2018-11-05T11:14:26.780Z,1009.46
2018-11-05T11:15:26.754Z,1009.50
2018-11-05T11:16:26.723Z,1009.50
2018-11-05T11:17:26.696Z,1009.47
2018-11-05T11:18:26.703Z,1009.45
2018-11-05T11:19:26.635Z,1009.47
2018-11-05T11:20:26.793Z,1009.44
2018-11-05T11:21:26.614Z,1009.47
2018-11-05T11:22:26.611Z,1009.48
2018-11-05T11:23:26.667Z,1009.45
2018-11-05T11:24:26.604Z,1009.45
2018-11-05T11:25:26.602Z,1009.48
2018-11-05T11:26:26.605Z,1009.47
2018-11-05T11:27:26.596Z,1009.39
2018-11-05T11:28:26.716Z,1009.40
2018-11-05T11:29:27.646Z,1009.34
2018-11-05T11:30:26.586Z,1009.23
2018-11-05T11:31:26.582Z,1009.27
2018-11-05T11:32:26.580Z,1009.27
2018-11-05T11:33:26.576Z,1009.22
2018-11-05T11:34:26.580Z,1009.24
2018-11-05T11:35:26.649Z,1009.14
2018-11-05T11:36:26.580Z,1009.15
2018-11-05T11:37:26.566Z,1009.20
2018-11-05T11:38:26.561Z,1009.20
2018-11-05T11:39:26.558Z,1009.16
2018-11-05T11:40:26.554Z,1009.14
2018-11-05T11:41:26.613Z,1009.09
2018-11-05T11:42:26.549Z,1009.11
2018-11-05T11:43:26.828Z,1009.08
2018-11-05T11:44:26.544Z,1009.05
2018-11-05T11:45:26.543Z,1009.05
2018-11-05T11:46:26.537Z,1009.03
2018-11-05T11:47:27.105Z,1009.00
2018-11-05T11:48:26.534Z,1008.97
2018-11-05T11:49:26.528Z,1009.01
2018-11-05T11:50:26.523Z,1009.00
2018-11-05T11:51:26.540Z,1008.96
2018-11-05T11:52:26.540Z,1008.95
2018-11-05T11:53:26.646Z,1008.94
2018-11-05T11:54:26.511Z,1008.90
2018-11-05T11:55:26.514Z,1008.90
2018-11-05T11:56:26.512Z,1008.90
2018-11-05T11:57:26.592Z,1008.91
2018-11-05T11:58:26.503Z,1008.85
2018-11-05T11:59:26.498Z,1008.84
2018-11-05T12:00:26.501Z,1008.78
2018-11-05T12:01:26.490Z,1008.76
2018-11-05T12:02:26.992Z,1008.71
2018-11-05T12:03:26.939Z,1008.70
2018-11-05T12:04:26.567Z,1008.71
2018-11-05T12:05:26.640Z,1008.72